WADD Airport Information

Runway Information
Runway 09 Length 9790 ft width 148 ft Elevation 11 ft Threshold N/A Heading 88
Runway 27 Length 9790 ft Width 148 ft Elevation 12 ft Threshold N/A Heading 268
Airport Frequencies
Type APP Name DIRECTOR Frequency 119.7 MHZ
Type ATIS Name ATIS Frequency 126.2 MHZ
Type GND Name NGURAH GND Frequency 118.8 MHZ
Type INFO Name INFO Frequency 8.88 MHZ
Type TWR Name NGURAH TWR Frequency 118.1 MHZ
Type TMA Name RADAR Frequency 119.3 MHZ
Airport Navaids
Type VOR-DME Name Bali Frequency 116200 KHZ
Type NDB Name Bali Frequency 230 KHZ
Airport Weather Information & NOTAM
ADDS - METARS form results

(0314 UTC 26 January 2023)
Data provider http://aviationweather.gov/metar/data/
 
METAR text: WADD 260300Z 25005KT 7000 -RA FEW015CB BKN015 26/25 Q1007 TEMPO TL0400 7000 -RA
Conditions at: WADD (BALI INTL , ID) observed 0300 UTC 26 January 2023
Temperature: 26.0°C (79°F)
Dewpoint: 25.0°C (77°F) [RH = 94%]
Pressure (altimeter): 29.73 inches Hg (1007.0 mb)
Winds: from the WSW (250 degrees) at 6 MPH (5 knots; 2.6 m/s)
Visibility: 4 miles ( 7 km)
Ceiling: 1500 feet AGL
Clouds: few clouds at 1500 feet AGL
broken clouds at 1500 feet AGL
Weather: -RA  (light rain)

METAR text: WADD 260230Z 29007KT 8000 -RA FEW015CB BKN015 26/24 Q1008 NOSIG TEMPO TL0330 8000 -RA
Conditions at: WADD (BALI INTL , ID) observed 0230 UTC 26 January 2023
Temperature: 26.0°C (79°F)
Dewpoint: 24.0°C (75°F) [RH = 89%]
Pressure (altimeter): 29.76 inches Hg (1008.0 mb)
Winds: from the WNW (290 degrees) at 8 MPH (7 knots; 3.6 m/s)
Visibility: 5 miles ( 8 km)
Ceiling: 1500 feet AGL
Clouds: few clouds at 1500 feet AGL
broken clouds at 1500 feet AGL
Weather: -RA  (light rain)

Forecast for: WADD (BALI INTL , ID)
Text: TAF WADD 252300Z 2600/2700 26007KT 8000 SCT016
Forecast period: 0000 UTC 26 January 2023 to 0000 UTC 27 January 2023
Forecast type: FROM: standard forecast or significant change
Winds: from the W (260 degrees) at 8 MPH (7 knots; 3.6 m/s)
Visibility: 5 miles (8 km)
Ceiling: at least 12,000 feet AGL
Clouds: scattered clouds at 1600 feet AGL
Weather: no significant weather forecast for this period
Text: TEMPO 2600/2604 5000 RA FEW014CB BKN014
Forecast period: 0000 to 0400 UTC 26 January 2023
Forecast type: TEMPORARY: The following changes expected for less than half the time period
Visibility: 3 miles (5 km)
Ceiling: 1400 feet AGL
Clouds: few clouds at 1400 feet AGL
broken clouds at 1400 feet AGL
Weather: RA  (moderate rain)
Text: TEMPO 2608/2612 -TSRA FEW014CB BKN014
Forecast period: 0800 to 1200 UTC 26 January 2023
Forecast type: TEMPORARY: The following changes expected for less than half the time period
Visibility: missing
Ceiling: 1400 feet AGL
Clouds: few clouds at 1400 feet AGL
broken clouds at 1400 feet AGL
Weather: -TSRA  (light rain associated with thunderstorm(s))